Terminal Aerodrome Forecast
Issued by NWS

Home | Current Version | Previous Version | Text Only | Print | Product List | Glossary On
Versions: 1 2 3 4 5 6 7 8 9 10 11 12 13 14 15 16 17 18 19 20
312
FTUS43 KFGF 191736 AAB
TAFBJI
TAF AMD
KBJI 191736Z 1918/2018 33012KT P6SM SCT050
     FM192300 33009KT P6SM BKN080
     FM200200 34005KT P6SM VCSH BKN060
     FM200300 31004KT P6SM -SHRA BKN040
     FM200700 31004KT P6SM BKN090
     FM201100 35005KT P6SM SCT140=

USA.gov is the U.S. government's official web portal to all federal, state and local government web resources and services.